sensor_id;sensor_type;location;lat;lon;timestamp;P1;durP1;ratioP1;P2;durP2;ratioP2
51292;SDS011;37377;45.186;9.778;2023-03-01T00:00:01;39.50;;;22.27;;
51292;SDS011;37377;45.186;9.778;2023-03-01T00:02:37;38.13;;;21.85;;
51292;SDS011;37377;45.186;9.778;2023-03-01T00:05:04;42.83;;;22.67;;
51292;SDS011;37377;45.186;9.778;2023-03-01T00:07:31;36.53;;;21.00;;
51292;SDS011;37377;45.186;9.778;2023-03-01T00:09:58;45.33;;;22.45;;
51292;SDS011;37377;45.186;9.778;2023-03-01T00:12:25;38.33;;;22.90;;
51292;SDS011;37377;45.186;9.778;2023-03-01T00:14:52;46.47;;;22.77;;
51292;SDS011;37377;45.186;9.778;2023-03-01T00:17:19;37.30;;;22.27;;
51292;SDS011;37377;45.186;9.778;2023-03-01T00:19:46;43.35;;;23.02;;
51292;SDS011;37377;45.186;9.778;2023-03-01T00:22:13;40.10;;;22.88;;
51292;SDS011;37377;45.186;9.778;2023-03-01T00:24:41;42.00;;;22.50;;
51292;SDS011;37377;45.186;9.778;2023-03-01T00:27:07;46.13;;;22.65;;
51292;SDS011;37377;45.186;9.778;2023-03-01T00:29:34;45.45;;;22.23;;
51292;SDS011;37377;45.186;9.778;2023-03-01T00:32:01;33.88;;;22.08;;
51292;SDS011;37377;45.186;9.778;2023-03-01T00:34:28;41.10;;;21.60;;
51292;SDS011;37377;45.186;9.778;2023-03-01T00:36:55;41.03;;;22.02;;
51292;SDS011;37377;45.186;9.778;2023-03-01T00:39:21;43.30;;;23.50;;
51292;SDS011;37377;45.186;9.778;2023-03-01T00:41:48;42.47;;;21.65;;
51292;SDS011;37377;45.186;9.778;2023-03-01T00:44:16;39.47;;;22.90;;
51292;SDS011;37377;45.186;9.778;2023-03-01T00:46:43;38.83;;;22.10;;
51292;SDS011;37377;45.186;9.778;2023-03-01T00:49:11;38.20;;;22.48;;
51292;SDS011;37377;45.186;9.778;2023-03-01T00:51:39;37.55;;;21.55;;
51292;SDS011;37377;45.186;9.778;2023-03-01T00:54:09;47.70;;;22.40;;
51292;SDS011;37377;45.186;9.778;2023-03-01T00:56:36;40.33;;;22.90;;
51292;SDS011;37377;45.186;9.778;2023-03-01T00:59:03;37.08;;;22.80;;
51292;SDS011;37377;45.186;9.778;2023-03-01T01:01:30;43.60;;;22.38;;
51292;SDS011;37377;45.186;9.778;2023-03-01T01:04:01;41.15;;;22.45;;
51292;SDS011;37377;45.186;9.778;2023-03-01T01:06:32;45.53;;;22.33;;
51292;SDS011;37377;45.186;9.778;2023-03-01T01:08:59;38.70;;;20.75;;
51292;SDS011;37377;45.186;9.778;2023-03-01T01:11:28;43.72;;;22.58;;
51292;SDS011;37377;45.186;9.778;2023-03-01T01:13:57;45.72;;;23.77;;
51292;SDS011;37377;45.186;9.778;2023-03-01T01:16:25;45.72;;;23.48;;
51292;SDS011;37377;45.186;9.778;2023-03-01T01:18:52;44.90;;;23.42;;
51292;SDS011;37377;45.186;9.778;2023-03-01T01:21:20;46.80;;;22.73;;
51292;SDS011;37377;45.186;9.778;2023-03-01T01:23:48;39.92;;;22.80;;
51292;SDS011;37377;45.186;9.778;2023-03-01T01:26:20;41.45;;;21.73;;
51292;SDS011;37377;45.186;9.778;2023-03-01T01:28:48;40.35;;;22.65;;
51292;SDS011;37377;45.186;9.778;2023-03-01T01:31:15;51.28;;;25.50;;
51292;SDS011;37377;45.186;9.778;2023-03-01T01:33:42;48.28;;;24.05;;
51292;SDS011;37377;45.186;9.778;2023-03-01T01:36:10;36.92;;;22.35;;
51292;SDS011;37377;45.186;9.778;2023-03-01T01:38:37;42.67;;;22.30;;
51292;SDS011;37377;45.186;9.778;2023-03-01T01:41:05;36.75;;;22.23;;
51292;SDS011;37377;45.186;9.778;2023-03-01T01:43:36;41.42;;;24.13;;
51292;SDS011;37377;45.186;9.778;2023-03-01T01:46:13;43.08;;;21.70;;
51292;SDS011;37377;45.186;9.778;2023-03-01T01:48:46;36.40;;;21.85;;
51292;SDS011;37377;45.186;9.778;2023-03-01T01:51:14;41.08;;;22.80;;
51292;SDS011;37377;45.186;9.778;2023-03-01T01:53:44;42.97;;;21.90;;
51292;SDS011;37377;45.186;9.778;2023-03-01T01:56:11;39.75;;;22.42;;
51292;SDS011;37377;45.186;9.778;2023-03-01T01:58:39;38.47;;;21.90;;
51292;SDS011;37377;45.186;9.778;2023-03-01T02:01:07;34.35;;;20.60;;
51292;SDS011;37377;45.186;9.778;2023-03-01T02:03:34;39.80;;;23.17;;
51292;SDS011;37377;45.186;9.778;2023-03-01T02:06:07;38.63;;;23.02;;
51292;SDS011;37377;45.186;9.778;2023-03-01T02:08:37;40.08;;;22.13;;
51292;SDS011;37377;45.186;9.778;2023-03-01T02:11:05;40.78;;;21.27;;
51292;SDS011;37377;45.186;9.778;2023-03-01T02:13:33;41.42;;;23.45;;
51292;SDS011;37377;45.186;9.778;2023-03-01T02:16:04;46.97;;;23.05;;
51292;SDS011;37377;45.186;9.778;2023-03-01T02:18:31;48.10;;;23.02;;
51292;SDS011;37377;45.186;9.778;2023-03-01T02:23:37;41.15;;;22.92;;
51292;SDS011;37377;45.186;9.778;2023-03-01T02:26:09;37.92;;;21.77;;
51292;SDS011;37377;45.186;9.778;2023-03-01T02:28:40;45.55;;;23.52;;
51292;SDS011;37377;45.186;9.778;2023-03-01T02:31:08;40.33;;;21.95;;
51292;SDS011;37377;45.186;9.778;2023-03-01T02:33:54;51.97;;;24.80;;
51292;SDS011;37377;45.186;9.778;2023-03-01T02:36:22;43.22;;;21.13;;
51292;SDS011;37377;45.186;9.778;2023-03-01T02:38:50;45.22;;;22.05;;
51292;SDS011;37377;45.186;9.778;2023-03-01T02:41:18;40.90;;;22.08;;
51292;SDS011;37377;45.186;9.778;2023-03-01T02:43:46;37.97;;;22.33;;
51292;SDS011;37377;45.186;9.778;2023-03-01T02:46:17;40.63;;;21.90;;
51292;SDS011;37377;45.186;9.778;2023-03-01T02:48:46;41.70;;;21.52;;
51292;SDS011;37377;45.186;9.778;2023-03-01T02:56:45;38.72;;;20.27;;
51292;SDS011;37377;45.186;9.778;2023-03-01T02:59:18;40.35;;;21.60;;
51292;SDS011;37377;45.186;9.778;2023-03-01T03:01:46;33.63;;;19.92;;
51292;SDS011;37377;45.186;9.778;2023-03-01T03:04:15;43.08;;;20.05;;
51292;SDS011;37377;45.186;9.778;2023-03-01T03:06:46;37.08;;;21.05;;
51292;SDS011;37377;45.186;9.778;2023-03-01T03:09:14;36.15;;;20.17;;
51292;SDS011;37377;45.186;9.778;2023-03-01T03:11:44;35.38;;;20.40;;
51292;SDS011;37377;45.186;9.778;2023-03-01T03:14:12;34.15;;;19.02;;
51292;SDS011;37377;45.186;9.778;2023-03-01T03:16:44;41.28;;;20.33;;
51292;SDS011;37377;45.186;9.778;2023-03-01T03:19:12;31.60;;;18.98;;
51292;SDS011;37377;45.186;9.778;2023-03-01T03:21:39;41.65;;;20.88;;
51292;SDS011;37377;45.186;9.778;2023-03-01T03:24:06;36.75;;;20.40;;
51292;SDS011;37377;45.186;9.778;2023-03-01T03:26:32;38.70;;;20.70;;
51292;SDS011;37377;45.186;9.778;2023-03-01T03:28:59;42.38;;;20.73;;
51292;SDS011;37377;45.186;9.778;2023-03-01T03:31:27;39.05;;;20.40;;
51292;SDS011;37377;45.186;9.778;2023-03-01T03:33:57;38.53;;;20.45;;
51292;SDS011;37377;45.186;9.778;2023-03-01T03:36:25;38.80;;;20.75;;
51292;SDS011;37377;45.186;9.778;2023-03-01T03:38:52;38.13;;;20.00;;
51292;SDS011;37377;45.186;9.778;2023-03-01T03:41:19;39.70;;;21.30;;
51292;SDS011;37377;45.186;9.778;2023-03-01T03:43:46;37.20;;;20.67;;
51292;SDS011;37377;45.186;9.778;2023-03-01T03:46:13;40.75;;;20.40;;
51292;SDS011;37377;45.186;9.778;2023-03-01T03:48:41;36.85;;;19.92;;
51292;SDS011;37377;45.186;9.778;2023-03-01T03:51:12;37.90;;;19.98;;
51292;SDS011;37377;45.186;9.778;2023-03-01T03:53:39;33.75;;;19.08;;
51292;SDS011;37377;45.186;9.778;2023-03-01T03:56:06;33.90;;;18.52;;
51292;SDS011;37377;45.186;9.778;2023-03-01T03:58:33;40.53;;;20.35;;
51292;SDS011;37377;45.186;9.778;2023-03-01T04:01:00;40.95;;;21.38;;
51292;SDS011;37377;45.186;9.778;2023-03-01T04:03:30;39.15;;;21.30;;
51292;SDS011;37377;45.186;9.778;2023-03-01T04:05:58;48.42;;;20.60;;
51292;SDS011;37377;45.186;9.778;2023-03-01T04:08:25;38.58;;;21.65;;
51292;SDS011;37377;45.186;9.778;2023-03-01T04:10:56;42.80;;;23.42;;
51292;SDS011;37377;45.186;9.778;2023-03-01T04:13:23;39.58;;;20.52;;
51292;SDS011;37377;45.186;9.778;2023-03-01T04:15:53;34.63;;;18.95;;
51292;SDS011;37377;45.186;9.778;2023-03-01T04:18:21;34.40;;;19.20;;
51292;SDS011;37377;45.186;9.778;2023-03-01T04:20:49;37.47;;;19.27;;
51292;SDS011;37377;45.186;9.778;2023-03-01T04:23:19;35.53;;;20.20;;
51292;SDS011;37377;45.186;9.778;2023-03-01T04:25:57;41.25;;;19.42;;
51292;SDS011;37377;45.186;9.778;2023-03-01T04:28:29;36.90;;;20.27;;
51292;SDS011;37377;45.186;9.778;2023-03-01T04:30:57;37.60;;;20.10;;
51292;SDS011;37377;45.186;9.778;2023-03-01T04:33:25;42.13;;;20.35;;
51292;SDS011;37377;45.186;9.778;2023-03-01T04:35:52;33.17;;;19.67;;
51292;SDS011;37377;45.186;9.778;2023-03-01T04:38:19;32.92;;;18.17;;
51292;SDS011;37377;45.186;9.778;2023-03-01T04:40:47;32.53;;;17.15;;
51292;SDS011;37377;45.186;9.778;2023-03-01T04:43:14;27.13;;;15.95;;
51292;SDS011;37377;45.186;9.778;2023-03-01T04:45:41;30.73;;;16.70;;
51292;SDS011;37377;45.186;9.778;2023-03-01T04:48:08;27.00;;;16.27;;
51292;SDS011;37377;45.186;9.778;2023-03-01T04:50:35;32.08;;;17.33;;
51292;SDS011;37377;45.186;9.778;2023-03-01T04:53:02;24.67;;;15.52;;
51292;SDS011;37377;45.186;9.778;2023-03-01T04:55:29;33.90;;;16.70;;
51292;SDS011;37377;45.186;9.778;2023-03-01T04:57:56;38.30;;;16.17;;
51292;SDS011;37377;45.186;9.778;2023-03-01T05:00:23;31.00;;;17.40;;
51292;SDS011;37377;45.186;9.778;2023-03-01T05:02:54;28.00;;;16.60;;
51292;SDS011;37377;45.186;9.778;2023-03-01T05:07:55;62.22;;;16.38;;
51292;SDS011;37377;45.186;9.778;2023-03-01T05:10:25;24.65;;;16.10;;
51292;SDS011;37377;45.186;9.778;2023-03-01T05:12:53;23.25;;;14.07;;
51292;SDS011;37377;45.186;9.778;2023-03-01T05:15:20;60.17;;;15.65;;
51292;SDS011;37377;45.186;9.778;2023-03-01T05:17:48;72.75;;;14.90;;
51292;SDS011;37377;45.186;9.778;2023-03-01T05:20:15;64.93;;;16.10;;
51292;SDS011;37377;45.186;9.778;2023-03-01T05:22:42;69.35;;;17.50;;
51292;SDS011;37377;45.186;9.778;2023-03-01T05:25:09;37.00;;;16.95;;
51292;SDS011;37377;45.186;9.778;2023-03-01T05:27:36;86.82;;;18.17;;
51292;SDS011;37377;45.186;9.778;2023-03-01T05:30:03;77.13;;;17.42;;
51292;SDS011;37377;45.186;9.778;2023-03-01T05:32:40;51.83;;;16.77;;
51292;SDS011;37377;45.186;9.778;2023-03-01T05:35:07;29.17;;;17.38;;
51292;SDS011;37377;45.186;9.778;2023-03-01T05:37:34;29.02;;;18.42;;
51292;SDS011;37377;45.186;9.778;2023-03-01T05:40:02;24.75;;;16.63;;
51292;SDS011;37377;45.186;9.778;2023-03-01T05:42:30;32.50;;;18.02;;
51292;SDS011;37377;45.186;9.778;2023-03-01T05:44:57;31.55;;;18.70;;
51292;SDS011;37377;45.186;9.778;2023-03-01T05:47:23;35.08;;;18.92;;
51292;SDS011;37377;45.186;9.778;2023-03-01T05:49:50;28.45;;;17.95;;
51292;SDS011;37377;45.186;9.778;2023-03-01T05:52:17;29.33;;;16.33;;
51292;SDS011;37377;45.186;9.778;2023-03-01T05:54:44;32.67;;;17.77;;
51292;SDS011;37377;45.186;9.778;2023-03-01T05:57:11;34.00;;;18.45;;
51292;SDS011;37377;45.186;9.778;2023-03-01T05:59:38;33.65;;;18.42;;
51292;SDS011;37377;45.186;9.778;2023-03-01T06:02:04;31.30;;;19.65;;
51292;SDS011;37377;45.186;9.778;2023-03-01T06:04:33;27.40;;;18.48;;
51292;SDS011;37377;45.186;9.778;2023-03-01T06:07:00;33.15;;;18.77;;
51292;SDS011;37377;45.186;9.778;2023-03-01T06:09:28;29.00;;;18.40;;
51292;SDS011;37377;45.186;9.778;2023-03-01T06:11:55;27.73;;;18.05;;
51292;SDS011;37377;45.186;9.778;2023-03-01T06:14:22;23.98;;;16.58;;
51292;SDS011;37377;45.186;9.778;2023-03-01T06:16:49;26.65;;;17.23;;
51292;SDS011;37377;45.186;9.778;2023-03-01T06:19:15;25.15;;;16.33;;
51292;SDS011;37377;45.186;9.778;2023-03-01T06:21:44;39.80;;;17.52;;
51292;SDS011;37377;45.186;9.778;2023-03-01T06:24:11;36.47;;;19.80;;
51292;SDS011;37377;45.186;9.778;2023-03-01T06:26:38;28.33;;;17.85;;
51292;SDS011;37377;45.186;9.778;2023-03-01T06:29:05;35.65;;;18.88;;
51292;SDS011;37377;45.186;9.778;2023-03-01T06:31:31;30.13;;;18.92;;
51292;SDS011;37377;45.186;9.778;2023-03-01T06:33:58;36.85;;;18.42;;
51292;SDS011;37377;45.186;9.778;2023-03-01T06:36:25;32.75;;;19.42;;
51292;SDS011;37377;45.186;9.778;2023-03-01T06:38:52;33.58;;;19.45;;
51292;SDS011;37377;45.186;9.778;2023-03-01T06:41:19;40.05;;;21.35;;
51292;SDS011;37377;45.186;9.778;2023-03-01T06:43:45;29.35;;;19.73;;
51292;SDS011;37377;45.186;9.778;2023-03-01T06:46:12;32.33;;;20.73;;
51292;SDS011;37377;45.186;9.778;2023-03-01T06:48:39;43.40;;;20.00;;
51292;SDS011;37377;45.186;9.778;2023-03-01T06:51:06;37.90;;;21.27;;
51292;SDS011;37377;45.186;9.778;2023-03-01T06:53:33;45.83;;;23.20;;
51292;SDS011;37377;45.186;9.778;2023-03-01T06:56:00;45.55;;;24.13;;
51292;SDS011;37377;45.186;9.778;2023-03-01T06:58:30;40.63;;;22.90;;
51292;SDS011;37377;45.186;9.778;2023-03-01T07:00:58;33.97;;;21.92;;
51292;SDS011;37377;45.186;9.778;2023-03-01T07:03:25;37.72;;;21.27;;
51292;SDS011;37377;45.186;9.778;2023-03-01T07:05:52;36.75;;;21.45;;
51292;SDS011;37377;45.186;9.778;2023-03-01T07:08:19;33.85;;;20.55;;
51292;SDS011;37377;45.186;9.778;2023-03-01T07:10:46;39.85;;;21.95;;
51292;SDS011;37377;45.186;9.778;2023-03-01T07:13:12;54.95;;;20.90;;
51292;SDS011;37377;45.186;9.778;2023-03-01T07:15:39;44.92;;;22.70;;
51292;SDS011;37377;45.186;9.778;2023-03-01T07:18:06;41.00;;;20.48;;
51292;SDS011;37377;45.186;9.778;2023-03-01T07:20:34;39.38;;;21.83;;
51292;SDS011;37377;45.186;9.778;2023-03-01T07:23:01;42.08;;;21.30;;
51292;SDS011;37377;45.186;9.778;2023-03-01T07:25:28;42.30;;;23.63;;
51292;SDS011;37377;45.186;9.778;2023-03-01T07:27:54;40.83;;;23.77;;
51292;SDS011;37377;45.186;9.778;2023-03-01T07:30:22;44.38;;;22.10;;
51292;SDS011;37377;45.186;9.778;2023-03-01T07:32:52;32.60;;;20.77;;
51292;SDS011;37377;45.186;9.778;2023-03-01T07:35:22;37.35;;;19.67;;
51292;SDS011;37377;45.186;9.778;2023-03-01T07:37:49;39.28;;;20.58;;
51292;SDS011;37377;45.186;9.778;2023-03-01T07:40:16;34.60;;;20.13;;
51292;SDS011;37377;45.186;9.778;2023-03-01T07:42:44;28.25;;;19.02;;
51292;SDS011;37377;45.186;9.778;2023-03-01T07:45:11;40.42;;;20.65;;
51292;SDS011;37377;45.186;9.778;2023-03-01T07:47:38;47.22;;;21.98;;
51292;SDS011;37377;45.186;9.778;2023-03-01T07:50:05;39.00;;;22.20;;
51292;SDS011;37377;45.186;9.778;2023-03-01T07:52:32;34.67;;;21.90;;
51292;SDS011;37377;45.186;9.778;2023-03-01T07:55:02;40.75;;;23.02;;
51292;SDS011;37377;45.186;9.778;2023-03-01T07:57:34;39.15;;;22.27;;
51292;SDS011;37377;45.186;9.778;2023-03-01T08:00:07;39.40;;;22.95;;
51292;SDS011;37377;45.186;9.778;2023-03-01T08:02:40;41.40;;;22.40;;
51292;SDS011;37377;45.186;9.778;2023-03-01T08:05:12;45.97;;;25.08;;
51292;SDS011;37377;45.186;9.778;2023-03-01T08:07:42;46.05;;;24.15;;
51292;SDS011;37377;45.186;9.778;2023-03-01T08:10:11;39.05;;;21.95;;
51292;SDS011;37377;45.186;9.778;2023-03-01T08:12:50;41.55;;;22.58;;
51292;SDS011;37377;45.186;9.778;2023-03-01T08:15:22;47.13;;;22.08;;
51292;SDS011;37377;45.186;9.778;2023-03-01T08:18:04;33.08;;;22.35;;
51292;SDS011;37377;45.186;9.778;2023-03-01T08:20:36;37.03;;;23.33;;
51292;SDS011;37377;45.186;9.778;2023-03-01T08:23:02;37.53;;;23.00;;
51292;SDS011;37377;45.186;9.778;2023-03-01T08:25:29;38.08;;;23.48;;
51292;SDS011;37377;45.186;9.778;2023-03-01T08:27:56;35.20;;;23.95;;
51292;SDS011;37377;45.186;9.778;2023-03-01T08:30:23;45.60;;;23.50;;
51292;SDS011;37377;45.186;9.778;2023-03-01T08:32:50;40.80;;;24.48;;
51292;SDS011;37377;45.186;9.778;2023-03-01T08:35:18;40.10;;;24.98;;
51292;SDS011;37377;45.186;9.778;2023-03-01T08:37:45;43.50;;;23.75;;
51292;SDS011;37377;45.186;9.778;2023-03-01T08:40:12;37.47;;;24.70;;
51292;SDS011;37377;45.186;9.778;2023-03-01T08:42:43;35.30;;;23.48;;
51292;SDS011;37377;45.186;9.778;2023-03-01T08:45:10;43.50;;;23.92;;
51292;SDS011;37377;45.186;9.778;2023-03-01T08:47:37;35.58;;;23.15;;
51292;SDS011;37377;45.186;9.778;2023-03-01T08:50:04;34.25;;;23.25;;
51292;SDS011;37377;45.186;9.778;2023-03-01T08:52:40;46.00;;;21.55;;
51292;SDS011;37377;45.186;9.778;2023-03-01T08:55:13;48.38;;;22.65;;
51292;SDS011;37377;45.186;9.778;2023-03-01T08:57:50;41.72;;;23.45;;
51292;SDS011;37377;45.186;9.778;2023-03-01T09:00:25;50.00;;;22.90;;
51292;SDS011;37377;45.186;9.778;2023-03-01T09:02:53;31.25;;;22.10;;
51292;SDS011;37377;45.186;9.778;2023-03-01T09:05:22;32.80;;;21.75;;
51292;SDS011;37377;45.186;9.778;2023-03-01T09:07:54;38.15;;;21.90;;
51292;SDS011;37377;45.186;9.778;2023-03-01T09:10:21;35.85;;;21.92;;
51292;SDS011;37377;45.186;9.778;2023-03-01T09:12:55;37.25;;;20.73;;
51292;SDS011;37377;45.186;9.778;2023-03-01T09:15:36;32.25;;;20.13;;
51292;SDS011;37377;45.186;9.778;2023-03-01T09:18:05;33.33;;;20.10;;
51292;SDS011;37377;45.186;9.778;2023-03-01T09:20:40;39.15;;;19.63;;
51292;SDS011;37377;45.186;9.778;2023-03-01T09:23:10;28.27;;;19.52;;
51292;SDS011;37377;45.186;9.778;2023-03-01T09:25:42;29.30;;;19.30;;
51292;SDS011;37377;45.186;9.778;2023-03-01T09:28:15;29.48;;;19.45;;
51292;SDS011;37377;45.186;9.778;2023-03-01T09:31:01;31.38;;;19.17;;
51292;SDS011;37377;45.186;9.778;2023-03-01T09:33:40;33.58;;;22.48;;
51292;SDS011;37377;45.186;9.778;2023-03-01T09:36:15;30.73;;;18.80;;
51292;SDS011;37377;45.186;9.778;2023-03-01T09:38:49;26.60;;;19.90;;
51292;SDS011;37377;45.186;9.778;2023-03-01T09:44:39;30.13;;;18.30;;
51292;SDS011;37377;45.186;9.778;2023-03-01T09:47:17;37.55;;;19.35;;
51292;SDS011;37377;45.186;9.778;2023-03-01T09:52:42;24.58;;;18.67;;
51292;SDS011;37377;45.186;9.778;2023-03-01T09:55:11;23.55;;;17.10;;
51292;SDS011;37377;45.186;9.778;2023-03-01T10:00:29;23.95;;;17.25;;
51292;SDS011;37377;45.186;9.778;2023-03-01T10:03:16;28.42;;;17.05;;
51292;SDS011;37377;45.186;9.778;2023-03-01T10:05:47;26.00;;;17.30;;
51292;SDS011;37377;45.186;9.778;2023-03-01T10:10:54;24.55;;;17.95;;
51292;SDS011;37377;45.186;9.778;2023-03-01T10:16:01;23.55;;;17.13;;
51292;SDS011;37377;45.186;9.778;2023-03-01T10:18:31;28.92;;;17.73;;
51292;SDS011;37377;45.186;9.778;2023-03-01T10:21:01;23.40;;;16.40;;
51292;SDS011;37377;45.186;9.778;2023-03-01T10:23:31;26.15;;;16.42;;
51292;SDS011;37377;45.186;9.778;2023-03-01T10:31:24;29.95;;;17.52;;
51292;SDS011;37377;45.186;9.778;2023-03-01T10:34:10;25.60;;;16.75;;
51292;SDS011;37377;45.186;9.778;2023-03-01T10:36:52;27.17;;;17.25;;
51292;SDS011;37377;45.186;9.778;2023-03-01T10:39:25;23.50;;;17.95;;
51292;SDS011;37377;45.186;9.778;2023-03-01T10:41:59;22.25;;;17.10;;
51292;SDS011;37377;45.186;9.778;2023-03-01T10:47:14;23.40;;;16.70;;
51292;SDS011;37377;45.186;9.778;2023-03-01T10:52:36;25.20;;;16.67;;
51292;SDS011;37377;45.186;9.778;2023-03-01T10:57:40;25.15;;;16.92;;
51292;SDS011;37377;45.186;9.778;2023-03-01T11:00:17;29.10;;;16.98;;
51292;SDS011;37377;45.186;9.778;2023-03-01T11:02:48;20.83;;;16.80;;
51292;SDS011;37377;45.186;9.778;2023-03-01T11:05:21;24.15;;;16.52;;
51292;SDS011;37377;45.186;9.778;2023-03-01T11:07:56;29.42;;;18.95;;
51292;SDS011;37377;45.186;9.778;2023-03-01T11:10:33;25.85;;;17.55;;
51292;SDS011;37377;45.186;9.778;2023-03-01T11:13:14;36.67;;;19.45;;
51292;SDS011;37377;45.186;9.778;2023-03-01T11:16:02;33.37;;;18.90;;
51292;SDS011;37377;45.186;9.778;2023-03-01T11:18:33;37.40;;;19.55;;
51292;SDS011;37377;45.186;9.778;2023-03-01T11:21:15;25.95;;;18.83;;
51292;SDS011;37377;45.186;9.778;2023-03-01T11:23:47;25.27;;;17.73;;
51292;SDS011;37377;45.186;9.778;2023-03-01T11:26:15;29.48;;;18.50;;
51292;SDS011;37377;45.186;9.778;2023-03-01T11:28:48;25.38;;;18.42;;
51292;SDS011;37377;45.186;9.778;2023-03-01T11:31:20;32.30;;;17.53;;
51292;SDS011;37377;45.186;9.778;2023-03-01T11:34:06;31.75;;;18.98;;
51292;SDS011;37377;45.186;9.778;2023-03-01T11:36:51;28.73;;;17.48;;
51292;SDS011;37377;45.186;9.778;2023-03-01T11:42:13;33.53;;;21.35;;
51292;SDS011;37377;45.186;9.778;2023-03-01T11:44:50;27.55;;;19.55;;
51292;SDS011;37377;45.186;9.778;2023-03-01T11:47:25;29.23;;;19.98;;
51292;SDS011;37377;45.186;9.778;2023-03-01T11:55:30;32.20;;;20.00;;
51292;SDS011;37377;45.186;9.778;2023-03-01T12:11:55;31.17;;;21.48;;
51292;SDS011;37377;45.186;9.778;2023-03-01T12:22:30;37.88;;;21.88;;
51292;SDS011;37377;45.186;9.778;2023-03-01T12:25:01;39.38;;;22.02;;
51292;SDS011;37377;45.186;9.778;2023-03-01T12:27:37;33.83;;;22.30;;
51292;SDS011;37377;45.186;9.778;2023-03-01T12:30:32;30.25;;;20.40;;
51292;SDS011;37377;45.186;9.778;2023-03-01T12:34:03;34.38;;;21.88;;
51292;SDS011;37377;45.186;9.778;2023-03-01T12:36:41;30.95;;;20.38;;
51292;SDS011;37377;45.186;9.778;2023-03-01T12:50:00;34.15;;;23.58;;
51292;SDS011;37377;45.186;9.778;2023-03-01T12:52:41;48.47;;;27.08;;
51292;SDS011;37377;45.186;9.778;2023-03-01T13:03:34;34.40;;;21.80;;
51292;SDS011;37377;45.186;9.778;2023-03-01T13:06:14;35.17;;;21.63;;
51292;SDS011;37377;45.186;9.778;2023-03-01T13:09:18;44.70;;;24.10;;
51292;SDS011;37377;45.186;9.778;2023-03-01T13:11:40;47.40;;;25.23;;
51292;SDS011;37377;45.186;9.778;2023-03-01T13:16:52;41.00;;;27.30;;
51292;SDS011;37377;45.186;9.778;2023-03-01T13:19:28;33.30;;;23.05;;
51292;SDS011;37377;45.186;9.778;2023-03-01T13:22:30;41.08;;;23.70;;
51292;SDS011;37377;45.186;9.778;2023-03-01T13:25:11;36.42;;;23.75;;
51292;SDS011;37377;45.186;9.778;2023-03-01T13:27:45;33.45;;;23.15;;
51292;SDS011;37377;45.186;9.778;2023-03-01T13:33:39;51.45;;;24.50;;
51292;SDS011;37377;45.186;9.778;2023-03-01T13:36:08;38.85;;;23.90;;
51292;SDS011;37377;45.186;9.778;2023-03-01T13:41:15;31.55;;;21.75;;
51292;SDS011;37377;45.186;9.778;2023-03-01T13:43:49;28.33;;;20.75;;
51292;SDS011;37377;45.186;9.778;2023-03-01T13:46:18;31.60;;;21.33;;
51292;SDS011;37377;45.186;9.778;2023-03-01T13:48:48;30.95;;;21.55;;
51292;SDS011;37377;45.186;9.778;2023-03-01T13:51:20;33.45;;;21.65;;
51292;SDS011;37377;45.186;9.778;2023-03-01T13:53:48;30.75;;;22.35;;
51292;SDS011;37377;45.186;9.778;2023-03-01T13:58:49;32.10;;;20.17;;
51292;SDS011;37377;45.186;9.778;2023-03-01T14:01:24;33.63;;;21.75;;
51292;SDS011;37377;45.186;9.778;2023-03-01T14:03:52;33.90;;;20.58;;
51292;SDS011;37377;45.186;9.778;2023-03-01T14:06:21;27.48;;;20.13;;
51292;SDS011;37377;45.186;9.778;2023-03-01T14:08:49;32.30;;;21.38;;
51292;SDS011;37377;45.186;9.778;2023-03-01T14:14:04;31.92;;;21.05;;
51292;SDS011;37377;45.186;9.778;2023-03-01T14:19:25;35.38;;;22.10;;
51292;SDS011;37377;45.186;9.778;2023-03-01T14:24:46;30.20;;;21.00;;
51292;SDS011;37377;45.186;9.778;2023-03-01T14:27:14;30.85;;;20.52;;
51292;SDS011;37377;45.186;9.778;2023-03-01T14:29:42;31.45;;;20.00;;
51292;SDS011;37377;45.186;9.778;2023-03-01T14:32:17;36.17;;;22.42;;
51292;SDS011;37377;45.186;9.778;2023-03-01T14:34:49;34.90;;;21.90;;
51292;SDS011;37377;45.186;9.778;2023-03-01T14:37:18;34.05;;;20.55;;
51292;SDS011;37377;45.186;9.778;2023-03-01T14:39:46;34.72;;;18.67;;
51292;SDS011;37377;45.186;9.778;2023-03-01T14:42:13;32.40;;;21.13;;
51292;SDS011;37377;45.186;9.778;2023-03-01T14:44:48;44.70;;;25.58;;
51292;SDS011;37377;45.186;9.778;2023-03-01T14:47:50;39.33;;;25.25;;
51292;SDS011;37377;45.186;9.778;2023-03-01T14:50:16;32.13;;;18.70;;
51292;SDS011;37377;45.186;9.778;2023-03-01T14:52:46;36.80;;;20.65;;
51292;SDS011;37377;45.186;9.778;2023-03-01T14:55:36;35.25;;;20.67;;
51292;SDS011;37377;45.186;9.778;2023-03-01T14:58:08;31.27;;;20.67;;
51292;SDS011;37377;45.186;9.778;2023-03-01T15:00:51;31.00;;;18.42;;
51292;SDS011;37377;45.186;9.778;2023-03-01T15:03:41;28.58;;;18.92;;
51292;SDS011;37377;45.186;9.778;2023-03-01T15:06:11;24.10;;;18.08;;
51292;SDS011;37377;45.186;9.778;2023-03-01T15:08:48;25.73;;;18.83;;
51292;SDS011;37377;45.186;9.778;2023-03-01T15:13:42;35.67;;;22.00;;
51292;SDS011;37377;45.186;9.778;2023-03-01T15:16:13;34.63;;;18.92;;
51292;SDS011;37377;45.186;9.778;2023-03-01T15:18:49;28.10;;;18.55;;
51292;SDS011;37377;45.186;9.778;2023-03-01T15:21:21;26.70;;;17.95;;
51292;SDS011;37377;45.186;9.778;2023-03-01T15:23:51;28.67;;;19.02;;
51292;SDS011;37377;45.186;9.778;2023-03-01T15:26:29;23.85;;;18.30;;
51292;SDS011;37377;45.186;9.778;2023-03-01T15:28:58;31.58;;;20.63;;
51292;SDS011;37377;45.186;9.778;2023-03-01T15:31:27;31.90;;;22.35;;
51292;SDS011;37377;45.186;9.778;2023-03-01T15:34:07;43.03;;;23.90;;
51292;SDS011;37377;45.186;9.778;2023-03-01T15:36:41;29.13;;;19.80;;
51292;SDS011;37377;45.186;9.778;2023-03-01T15:41:45;27.55;;;18.33;;
51292;SDS011;37377;45.186;9.778;2023-03-01T15:44:17;31.77;;;19.67;;
51292;SDS011;37377;45.186;9.778;2023-03-01T15:46:47;31.35;;;18.90;;
51292;SDS011;37377;45.186;9.778;2023-03-01T15:52:02;33.05;;;18.42;;
51292;SDS011;37377;45.186;9.778;2023-03-01T15:54:32;30.67;;;18.60;;
51292;SDS011;37377;45.186;9.778;2023-03-01T15:56:59;33.65;;;19.30;;
51292;SDS011;37377;45.186;9.778;2023-03-01T15:59:25;31.77;;;19.42;;
51292;SDS011;37377;45.186;9.778;2023-03-01T16:01:52;33.38;;;18.05;;
51292;SDS011;37377;45.186;9.778;2023-03-01T16:04:19;30.23;;;18.48;;
51292;SDS011;37377;45.186;9.778;2023-03-01T16:06:50;28.92;;;18.52;;
51292;SDS011;37377;45.186;9.778;2023-03-01T16:09:21;29.55;;;17.95;;
51292;SDS011;37377;45.186;9.778;2023-03-01T16:11:49;33.25;;;19.02;;
51292;SDS011;37377;45.186;9.778;2023-03-01T16:14:16;36.83;;;19.77;;
51292;SDS011;37377;45.186;9.778;2023-03-01T16:16:43;40.58;;;20.80;;
51292;SDS011;37377;45.186;9.778;2023-03-01T16:19:10;34.20;;;19.88;;
51292;SDS011;37377;45.186;9.778;2023-03-01T16:21:37;32.90;;;19.27;;
51292;SDS011;37377;45.186;9.778;2023-03-01T16:24:08;37.45;;;21.00;;
51292;SDS011;37377;45.186;9.778;2023-03-01T16:26:41;33.30;;;18.98;;
51292;SDS011;37377;45.186;9.778;2023-03-01T16:29:08;49.65;;;25.45;;
51292;SDS011;37377;45.186;9.778;2023-03-01T16:31:35;33.33;;;18.63;;
51292;SDS011;37377;45.186;9.778;2023-03-01T16:34:02;59.67;;;29.05;;